createdAt,value
2023-05-17T00:00:00.901Z,822.00
2023-05-17T00:01:00.972Z,817.00
2023-05-17T00:02:01.014Z,815.00
2023-05-17T00:03:01.106Z,814.00
2023-05-17T00:04:01.217Z,814.00
2023-05-17T00:05:01.392Z,815.00
2023-05-17T00:06:01.238Z,814.00
2023-05-17T00:07:01.294Z,814.00
2023-05-17T00:08:01.346Z,811.00
2023-05-17T00:09:01.366Z,809.00
2023-05-17T00:10:01.409Z,809.00
2023-05-17T00:11:01.477Z,807.00
2023-05-17T00:12:01.438Z,805.00
2023-05-17T00:13:01.476Z,804.00
2023-05-17T00:14:01.496Z,803.00
2023-05-17T00:15:01.531Z,802.00
2023-05-17T00:16:01.554Z,804.00
2023-05-17T00:17:01.588Z,805.00
2023-05-17T00:18:01.701Z,805.00
2023-05-17T00:19:01.715Z,804.00
2023-05-17T00:20:01.693Z,800.00
2023-05-17T00:21:01.734Z,800.00
2023-05-17T00:22:01.774Z,800.00
2023-05-17T00:23:01.861Z,802.00
2023-05-17T00:24:01.919Z,803.00
2023-05-17T00:25:01.919Z,801.00
2023-05-17T00:26:01.881Z,800.00
2023-05-17T00:27:02.179Z,800.00
2023-05-17T00:28:01.882Z,798.00
2023-05-17T00:29:01.925Z,798.00
2023-05-17T00:30:01.942Z,797.00
2023-05-17T00:31:01.961Z,801.00
2023-05-17T00:32:02.004Z,801.00
2023-05-17T00:33:02.063Z,800.00
2023-05-17T00:34:02.026Z,803.00
2023-05-17T00:35:02.099Z,800.00
2023-05-17T00:36:02.094Z,800.00
2023-05-17T00:37:02.133Z,801.00
2023-05-17T00:38:02.170Z,801.00
2023-05-17T00:39:02.200Z,800.00
2023-05-17T00:40:02.206Z,800.00
2023-05-17T00:41:02.236Z,797.00
2023-05-17T00:42:02.276Z,798.00
2023-05-17T00:43:02.391Z,799.00
2023-05-17T00:44:02.336Z,798.00
2023-05-17T00:45:02.329Z,797.00
2023-05-17T00:46:02.358Z,796.00
2023-05-17T00:47:02.365Z,794.00
2023-05-17T00:48:02.477Z,796.00
2023-05-17T00:49:02.505Z,795.00
2023-05-17T00:50:02.438Z,795.00
2023-05-17T00:51:02.438Z,793.00
2023-05-17T00:52:02.463Z,792.00
2023-05-17T00:53:02.479Z,791.00
2023-05-17T00:54:02.507Z,792.00
2023-05-17T00:55:02.510Z,793.00
2023-05-17T00:56:02.510Z,794.00
2023-05-17T00:57:02.525Z,795.00
2023-05-17T00:58:02.533Z,794.00
2023-05-17T00:59:02.673Z,795.00
2023-05-17T01:00:02.515Z,795.00
2023-05-17T01:01:02.526Z,792.00
2023-05-17T01:02:02.529Z,790.00
2023-05-17T01:03:02.584Z,793.00
2023-05-17T01:04:02.561Z,791.00
2023-05-17T01:05:02.596Z,789.00
2023-05-17T01:06:02.520Z,788.00
2023-05-17T01:07:02.531Z,788.00
2023-05-17T01:08:02.536Z,785.00
2023-05-17T01:09:02.573Z,783.00
2023-05-17T01:10:02.602Z,782.00
2023-05-17T01:11:02.622Z,783.00
2023-05-17T01:12:02.658Z,784.00
2023-05-17T01:13:02.642Z,785.00
2023-05-17T01:14:02.656Z,785.00
2023-05-17T01:15:02.708Z,786.00
2023-05-17T01:16:02.642Z,785.00
2023-05-17T01:17:02.672Z,784.00
2023-05-17T01:18:02.746Z,784.00
2023-05-17T01:19:02.800Z,782.00
2023-05-17T01:20:02.846Z,780.00
2023-05-17T01:21:02.724Z,781.00
2023-05-17T01:22:02.744Z,777.00
2023-05-17T01:23:02.750Z,776.00
2023-05-17T01:24:02.758Z,774.00
2023-05-17T01:25:02.784Z,772.00
2023-05-17T01:26:02.799Z,772.00
2023-05-17T01:27:02.830Z,776.00
2023-05-17T01:28:02.856Z,776.00
2023-05-17T01:29:02.841Z,775.00
2023-05-17T01:30:02.845Z,774.00
2023-05-17T01:31:02.909Z,774.00
2023-05-17T01:32:02.861Z,769.00
2023-05-17T01:33:02.988Z,767.00
2023-05-17T01:34:03.068Z,767.00
2023-05-17T01:35:02.960Z,768.00
2023-05-17T01:36:03.002Z,768.00
2023-05-17T01:37:03.016Z,765.00
2023-05-17T01:38:03.024Z,768.00
2023-05-17T01:39:03.032Z,763.00
2023-05-17T01:40:03.032Z,763.00
2023-05-17T01:41:03.044Z,764.00
2023-05-17T01:42:03.046Z,765.00
2023-05-17T01:43:03.074Z,767.00
2023-05-17T01:44:03.139Z,766.00
2023-05-17T01:45:03.125Z,765.00
2023-05-17T01:46:03.103Z,761.00
2023-05-17T01:47:03.168Z,762.00
2023-05-17T01:48:03.137Z,762.00
2023-05-17T01:49:03.191Z,763.00
2023-05-17T01:50:03.106Z,765.00
2023-05-17T01:51:03.117Z,764.00
2023-05-17T01:52:03.150Z,763.00
2023-05-17T01:53:03.112Z,762.00
2023-05-17T01:54:03.116Z,762.00
2023-05-17T01:55:03.157Z,761.00
2023-05-17T01:56:03.159Z,762.00
2023-05-17T01:57:03.164Z,763.00
2023-05-17T01:58:03.183Z,765.00
2023-05-17T01:59:03.228Z,763.00
2023-05-17T02:00:03.248Z,763.00
2023-05-17T02:01:03.257Z,760.00
2023-05-17T02:02:03.268Z,761.00
2023-05-17T02:03:03.458Z,760.00
2023-05-17T02:04:03.351Z,760.00
2023-05-17T02:05:03.361Z,760.00
2023-05-17T02:06:03.314Z,759.00
2023-05-17T02:07:03.312Z,757.00
2023-05-17T02:08:03.305Z,758.00
2023-05-17T02:09:03.314Z,757.00
2023-05-17T02:10:03.317Z,759.00
2023-05-17T02:11:03.317Z,756.00
2023-05-17T02:12:03.306Z,755.00
2023-05-17T02:13:03.316Z,753.00
2023-05-17T02:14:03.316Z,754.00
2023-05-17T02:15:03.319Z,754.00
2023-05-17T02:16:03.354Z,754.00
2023-05-17T02:17:03.383Z,753.00
2023-05-17T02:18:03.518Z,753.00
2023-05-17T02:19:03.516Z,753.00
2023-05-17T02:20:03.454Z,755.00
2023-05-17T02:21:03.473Z,755.00
2023-05-17T02:22:03.500Z,756.00
2023-05-17T02:23:03.527Z,758.00
2023-05-17T02:24:03.533Z,756.00
2023-05-17T02:25:03.534Z,755.00
2023-05-17T02:26:03.528Z,755.00
2023-05-17T02:27:03.532Z,753.00
2023-05-17T02:28:03.566Z,752.00
2023-05-17T02:29:03.540Z,752.00
2023-05-17T02:30:03.566Z,750.00
2023-05-17T02:31:03.544Z,748.00
2023-05-17T02:32:03.545Z,744.00
2023-05-17T02:33:03.584Z,745.00
2023-05-17T02:34:03.630Z,746.00
2023-05-17T02:35:03.615Z,748.00
2023-05-17T02:36:03.553Z,747.00
2023-05-17T02:37:03.550Z,745.00
2023-05-17T02:38:03.533Z,744.00
2023-05-17T02:39:03.519Z,746.00
2023-05-17T02:40:03.531Z,748.00
2023-05-17T02:41:03.525Z,747.00
2023-05-17T02:42:03.522Z,748.00
2023-05-17T02:43:03.521Z,749.00
2023-05-17T02:44:03.535Z,750.00
2023-05-17T02:45:03.526Z,750.00
2023-05-17T02:46:03.504Z,750.00
2023-05-17T02:47:03.514Z,750.00
2023-05-17T02:48:03.516Z,748.00
2023-05-17T02:49:03.497Z,747.00
2023-05-17T02:50:03.496Z,746.00
2023-05-17T02:51:03.564Z,743.00
2023-05-17T02:52:03.476Z,742.00
2023-05-17T02:53:03.508Z,741.00
2023-05-17T02:54:03.476Z,744.00
2023-05-17T02:55:03.472Z,747.00
2023-05-17T02:56:03.505Z,748.00
2023-05-17T02:57:03.490Z,751.00
2023-05-17T02:58:03.472Z,751.00
2023-05-17T02:59:03.467Z,751.00
2023-05-17T03:00:03.461Z,749.00
2023-05-17T03:01:03.470Z,747.00
2023-05-17T03:02:03.450Z,744.00
2023-05-17T03:03:03.572Z,740.00
2023-05-17T03:04:03.667Z,738.00
2023-05-17T03:05:03.450Z,739.00
2023-05-17T03:06:03.451Z,739.00
2023-05-17T03:07:05.816Z,737.00
2023-05-17T03:08:03.453Z,735.00
2023-05-17T03:09:03.435Z,734.00
2023-05-17T03:10:03.432Z,735.00
2023-05-17T03:11:03.441Z,732.00
2023-05-17T03:12:03.407Z,731.00
2023-05-17T03:13:03.419Z,728.00
2023-05-17T03:14:03.421Z,730.00
2023-05-17T03:15:03.414Z,730.00
2023-05-17T03:16:03.409Z,728.00
2023-05-17T03:17:03.385Z,729.00
2023-05-17T03:18:03.488Z,729.00
2023-05-17T03:19:03.569Z,727.00
2023-05-17T03:20:03.373Z,725.00
2023-05-17T03:21:03.357Z,726.00
2023-05-17T03:22:03.361Z,727.00
2023-05-17T03:23:03.430Z,727.00
2023-05-17T03:24:03.346Z,728.00
2023-05-17T03:25:03.328Z,725.00
2023-05-17T03:26:03.336Z,724.00
2023-05-17T03:27:03.328Z,724.00
2023-05-17T03:28:03.313Z,723.00
2023-05-17T03:29:03.323Z,723.00
2023-05-17T03:30:03.333Z,724.00
2023-05-17T03:31:03.325Z,723.00
2023-05-17T03:32:03.283Z,721.00
2023-05-17T03:33:03.336Z,723.00
2023-05-17T03:34:03.316Z,722.00
2023-05-17T03:35:03.292Z,724.00
2023-05-17T03:36:03.260Z,724.00
2023-05-17T03:37:03.300Z,723.00
2023-05-17T03:38:03.242Z,722.00
2023-05-17T03:39:03.306Z,720.00
2023-05-17T03:40:03.257Z,718.00
2023-05-17T03:41:03.227Z,719.00
2023-05-17T03:42:03.214Z,716.00
2023-05-17T03:43:03.205Z,716.00
2023-05-17T03:44:03.200Z,714.00
2023-05-17T03:45:03.218Z,717.00
2023-05-17T03:46:03.183Z,719.00
2023-05-17T03:47:03.211Z,719.00
2023-05-17T03:48:03.283Z,719.00
2023-05-17T03:49:03.234Z,721.00
2023-05-17T03:50:03.162Z,723.00
2023-05-17T03:51:03.148Z,724.00
2023-05-17T03:52:03.150Z,722.00
2023-05-17T03:53:03.130Z,719.00
2023-05-17T03:54:03.129Z,719.00
2023-05-17T03:55:03.210Z,720.00
2023-05-17T03:56:03.115Z,718.00
2023-05-17T03:57:03.123Z,715.00
2023-05-17T03:58:03.103Z,714.00
2023-05-17T03:59:03.101Z,713.00
2023-05-17T04:00:03.094Z,713.00
2023-05-17T04:01:03.093Z,714.00
2023-05-17T04:02:03.086Z,715.00
2023-05-17T04:03:03.169Z,715.00
2023-05-17T04:04:03.084Z,715.00
2023-05-17T04:05:03.109Z,715.00
2023-05-17T04:06:03.060Z,714.00
2023-05-17T04:07:03.050Z,714.00
2023-05-17T04:08:03.065Z,713.00
2023-05-17T04:09:03.039Z,712.00
2023-05-17T04:10:03.047Z,712.00
2023-05-17T04:11:03.273Z,714.00
2023-05-17T04:12:03.020Z,714.00
2023-05-17T04:13:03.012Z,714.00
2023-05-17T04:14:03.034Z,713.00
2023-05-17T04:15:02.992Z,712.00
2023-05-17T04:16:02.988Z,712.00
2023-05-17T04:17:02.988Z,714.00
2023-05-17T04:18:03.038Z,716.00
2023-05-17T04:19:03.020Z,715.00
2023-05-17T04:20:02.961Z,715.00
2023-05-17T04:21:02.956Z,715.00
2023-05-17T04:22:02.953Z,717.00
2023-05-17T04:23:02.948Z,717.00
2023-05-17T04:24:02.937Z,715.00
2023-05-17T04:25:02.949Z,715.00
2023-05-17T04:26:02.924Z,718.00
2023-05-17T04:27:03.632Z,719.00
2023-05-17T04:28:02.906Z,716.00
2023-05-17T04:29:02.919Z,716.00
2023-05-17T04:30:02.933Z,716.00
2023-05-17T04:31:02.898Z,715.00
2023-05-17T04:32:02.891Z,715.00
2023-05-17T04:33:02.922Z,714.00
2023-05-17T04:34:02.911Z,713.00
2023-05-17T04:35:02.876Z,712.00
2023-05-17T04:36:02.860Z,711.00
2023-05-17T04:37:02.859Z,712.00
2023-05-17T04:38:02.850Z,711.00
2023-05-17T04:39:02.839Z,713.00
2023-05-17T04:40:02.825Z,712.00
2023-05-17T04:41:02.818Z,713.00
2023-05-17T04:42:02.808Z,712.00
2023-05-17T04:43:02.878Z,712.00
2023-05-17T04:44:02.789Z,712.00
2023-05-17T04:45:02.811Z,714.00
2023-05-17T04:46:02.801Z,716.00
2023-05-17T04:47:02.774Z,714.00
2023-05-17T04:48:02.807Z,712.00
2023-05-17T04:49:02.866Z,712.00
2023-05-17T04:50:02.762Z,710.00
2023-05-17T04:51:02.752Z,709.00
2023-05-17T04:52:05.410Z,708.00
2023-05-17T04:53:02.746Z,708.00
2023-05-17T04:54:02.730Z,710.00
2023-05-17T04:55:02.710Z,711.00
2023-05-17T04:56:02.711Z,711.00
2023-05-17T04:57:02.696Z,711.00
2023-05-17T04:58:02.704Z,712.00
2023-05-17T04:59:02.792Z,710.00
2023-05-17T05:00:02.679Z,710.00
2023-05-17T05:01:02.675Z,705.00
2023-05-17T05:02:02.660Z,705.00
2023-05-17T05:03:02.718Z,702.00
2023-05-17T05:04:02.745Z,702.00
2023-05-17T05:05:02.713Z,704.00
2023-05-17T05:06:02.623Z,702.00
2023-05-17T05:07:02.639Z,702.00
2023-05-17T05:08:02.616Z,702.00
2023-05-17T05:09:02.621Z,705.00
2023-05-17T05:10:02.596Z,704.00
2023-05-17T05:11:02.614Z,703.00
2023-05-17T05:12:02.591Z,704.00
2023-05-17T05:13:02.585Z,702.00
2023-05-17T05:14:02.567Z,701.00
2023-05-17T05:15:02.638Z,700.00
2023-05-17T05:16:02.574Z,699.00
2023-05-17T05:17:02.555Z,700.00
2023-05-17T05:18:02.634Z,700.00
2023-05-17T05:19:02.752Z,700.00
2023-05-17T05:20:02.606Z,700.00
2023-05-17T05:21:02.538Z,699.00
2023-05-17T05:22:02.527Z,698.00
2023-05-17T05:23:02.552Z,699.00
2023-05-17T05:24:02.517Z,700.00
2023-05-17T05:25:02.505Z,701.00
2023-05-17T05:26:02.503Z,700.00
2023-05-17T05:27:03.901Z,697.00
2023-05-17T05:28:02.510Z,696.00
2023-05-17T05:29:02.488Z,695.00
2023-05-17T05:30:02.467Z,695.00
2023-05-17T05:31:02.517Z,695.00
2023-05-17T05:32:02.465Z,695.00
2023-05-17T05:33:02.562Z,696.00
2023-05-17T05:34:02.564Z,695.00
2023-05-17T05:35:02.542Z,700.00
2023-05-17T05:36:02.431Z,708.00
2023-05-17T05:37:02.419Z,765.00
2023-05-17T05:38:02.415Z,780.00
2023-05-17T05:39:02.414Z,779.00
2023-05-17T05:40:02.405Z,785.00
2023-05-17T05:41:02.400Z,802.00
2023-05-17T05:42:02.388Z,850.00
2023-05-17T05:43:02.389Z,871.00
2023-05-17T05:44:02.401Z,958.00
2023-05-17T05:45:02.374Z,988.00
2023-05-17T05:46:02.439Z,1055.00
2023-05-17T05:47:02.441Z,1120.00
2023-05-17T05:48:02.457Z,1118.00
2023-05-17T05:49:02.510Z,1118.00
2023-05-17T05:50:02.332Z,1123.00
2023-05-17T05:51:02.331Z,1192.00
2023-05-17T05:52:02.358Z,1188.00
2023-05-17T05:53:14.464Z,1242.00
2023-05-17T05:54:03.315Z,1226.00
2023-05-17T05:55:02.310Z,1232.00
2023-05-17T05:56:02.316Z,1244.00
2023-05-17T05:57:02.356Z,1252.00
2023-05-17T05:58:02.333Z,1256.00
2023-05-17T05:59:02.293Z,1254.00
2023-05-17T06:00:02.322Z,1266.00
2023-05-17T06:01:03.902Z,1272.00
2023-05-17T06:02:02.253Z,1290.00
2023-05-17T06:03:02.424Z,1293.00
2023-05-17T06:04:02.252Z,1311.00
2023-05-17T06:05:02.232Z,1387.00
2023-05-17T06:06:02.328Z,1363.00
2023-05-17T06:07:02.284Z,1353.00
2023-05-17T06:08:02.263Z,1358.00
2023-05-17T06:09:02.376Z,1394.00
2023-05-17T06:10:02.204Z,1406.00
2023-05-17T06:11:02.188Z,1461.00
2023-05-17T06:12:02.220Z,1456.00
2023-05-17T06:13:02.379Z,1460.00
2023-05-17T06:14:02.330Z,1449.00
2023-05-17T06:15:02.172Z,1428.00
2023-05-17T06:16:02.148Z,1419.00
2023-05-17T06:17:02.232Z,1420.00
2023-05-17T06:18:02.268Z,1425.00
2023-05-17T06:19:02.276Z,1512.00
2023-05-17T06:20:02.340Z,1492.00
2023-05-17T06:21:02.116Z,1504.00
2023-05-17T06:22:02.152Z,1506.00
2023-05-17T06:23:02.142Z,1505.00
2023-05-17T06:24:04.804Z,1532.00
2023-05-17T06:25:02.095Z,1529.00
2023-05-17T06:26:02.539Z,1551.00
2023-05-17T06:27:02.076Z,1638.00
2023-05-17T06:28:02.090Z,1641.00
2023-05-17T06:29:02.077Z,1629.00
2023-05-17T06:30:02.805Z,1620.00
2023-05-17T06:31:02.196Z,1655.00
2023-05-17T06:32:02.047Z,1663.00
2023-05-17T06:33:02.160Z,1663.00
2023-05-17T06:34:02.109Z,1713.00
2023-05-17T06:35:02.082Z,1747.00
2023-05-17T06:37:03.942Z,1674.00
2023-05-17T06:38:02.469Z,1593.00
2023-05-17T06:39:02.054Z,1602.00
2023-05-17T06:40:10.255Z,1607.00
2023-05-17T06:41:02.976Z,1539.00
2023-05-17T06:42:02.032Z,1551.00
2023-05-17T06:43:02.073Z,1484.00
2023-05-17T06:44:01.974Z,1468.00
2023-05-17T06:45:01.979Z,1453.00
2023-05-17T06:46:01.943Z,1422.00
2023-05-17T06:47:02.005Z,1410.00
2023-05-17T06:48:02.062Z,1397.00
2023-05-17T06:49:02.203Z,1312.00
2023-05-17T06:50:02.189Z,1268.00
2023-05-17T06:51:02.279Z,1208.00
2023-05-17T06:52:01.953Z,1184.00
2023-05-17T06:53:02.447Z,1133.00
2023-05-17T06:54:01.955Z,1081.00
2023-05-17T06:55:01.988Z,1048.00
2023-05-17T06:56:01.969Z,1011.00
2023-05-17T06:57:01.971Z,991.00
2023-05-17T06:58:02.022Z,974.00
2023-05-17T06:59:01.965Z,924.00
2023-05-17T07:00:01.989Z,913.00
2023-05-17T07:01:02.005Z,897.00
2023-05-17T07:02:02.020Z,884.00
2023-05-17T07:03:02.174Z,824.00
2023-05-17T07:04:02.109Z,811.00
2023-05-17T07:05:02.237Z,795.00
2023-05-17T07:06:02.163Z,782.00
2023-05-17T07:07:02.126Z,760.00
2023-05-17T07:08:02.102Z,746.00
2023-05-17T07:09:02.945Z,727.00
2023-05-17T07:10:02.040Z,716.00
2023-05-17T07:11:02.099Z,706.00
2023-05-17T07:12:02.028Z,697.00
2023-05-17T07:13:02.039Z,686.00
2023-05-17T07:14:02.100Z,678.00
2023-05-17T07:15:02.041Z,673.00
2023-05-17T07:16:02.081Z,671.00
2023-05-17T07:17:02.041Z,665.00
2023-05-17T07:18:02.163Z,655.00
2023-05-17T07:19:02.115Z,635.00
2023-05-17T07:20:02.389Z,629.00
2023-05-17T07:21:02.201Z,627.00
2023-05-17T07:22:02.253Z,624.00
2023-05-17T07:23:02.741Z,620.00
2023-05-17T07:24:02.347Z,614.00
2023-05-17T07:25:02.411Z,610.00
2023-05-17T07:26:02.637Z,606.00
2023-05-17T07:27:02.556Z,603.00
2023-05-17T07:28:02.617Z,602.00
2023-05-17T07:29:02.683Z,601.00
2023-05-17T07:30:02.717Z,599.00
2023-05-17T07:31:02.801Z,594.00
2023-05-17T07:32:02.820Z,592.00
2023-05-17T07:33:02.939Z,631.00
2023-05-17T07:34:02.994Z,712.00
2023-05-17T07:35:03.003Z,726.00
2023-05-17T07:36:03.109Z,796.00
2023-05-17T07:37:03.119Z,891.00
2023-05-17T07:38:03.184Z,936.00
2023-05-17T07:39:03.324Z,939.00
2023-05-17T07:40:03.229Z,944.00
2023-05-17T07:41:03.332Z,941.00
2023-05-17T07:42:05.261Z,949.00
2023-05-17T07:43:03.322Z,993.00
2023-05-17T07:44:03.352Z,1005.00
2023-05-17T07:45:03.362Z,1014.00
2023-05-17T07:46:03.432Z,1020.00
2023-05-17T07:47:03.499Z,1025.00
2023-05-17T07:48:03.564Z,1027.00
2023-05-17T07:49:03.540Z,1026.00
2023-05-17T07:50:03.411Z,1028.00
2023-05-17T07:51:03.430Z,1027.00
2023-05-17T07:52:03.443Z,1024.00
2023-05-17T07:53:03.501Z,1022.00
2023-05-17T07:54:03.481Z,1022.00
2023-05-17T07:55:03.510Z,1020.00
2023-05-17T07:56:04.503Z,1016.00
2023-05-17T07:57:03.496Z,1017.00
2023-05-17T07:58:03.551Z,1017.00
2023-05-17T07:59:03.564Z,1013.00
2023-05-17T08:00:03.543Z,1015.00
2023-05-17T08:01:03.524Z,1015.00
2023-05-17T08:02:03.522Z,1015.00
2023-05-17T08:03:03.588Z,1013.00
2023-05-17T08:04:03.563Z,1013.00
2023-05-17T08:05:03.555Z,1015.00
2023-05-17T08:06:03.562Z,1013.00
2023-05-17T08:07:03.588Z,1014.00
2023-05-17T08:08:03.583Z,1014.00
2023-05-17T08:09:03.700Z,1015.00
2023-05-17T08:10:03.567Z,1014.00
2023-05-17T08:11:03.571Z,1014.00
2023-05-17T08:12:03.596Z,1013.00
2023-05-17T08:13:03.568Z,1013.00
2023-05-17T08:14:03.556Z,1010.00
2023-05-17T08:15:03.581Z,1009.00
2023-05-17T08:16:12.736Z,1007.00
2023-05-17T08:17:04.553Z,993.00
2023-05-17T08:18:05.008Z,989.00
2023-05-17T08:19:03.817Z,984.00
2023-05-17T08:20:03.592Z,1114.00
2023-05-17T08:21:03.531Z,1081.00
2023-05-17T08:22:03.521Z,1082.00
2023-05-17T08:23:03.513Z,1136.00
2023-05-17T08:24:04.237Z,1140.00
2023-05-17T08:25:03.494Z,1141.00
2023-05-17T08:26:03.521Z,1141.00
2023-05-17T08:27:03.639Z,1140.00
2023-05-17T08:28:03.467Z,1129.00
2023-05-17T08:29:03.473Z,1141.00
2023-05-17T08:30:07.008Z,1149.00
2023-05-17T08:31:04.483Z,1147.00
2023-05-17T08:32:03.465Z,1137.00
2023-05-17T08:33:03.627Z,1130.00
2023-05-17T08:34:03.490Z,1132.00
2023-05-17T08:35:03.432Z,1137.00
2023-05-17T08:36:03.426Z,1135.00
2023-05-17T08:37:03.447Z,1129.00
2023-05-17T08:38:03.420Z,1127.00
2023-05-17T08:39:03.415Z,1121.00
2023-05-17T08:40:03.456Z,1109.00
2023-05-17T08:41:03.382Z,1100.00
2023-05-17T08:42:03.388Z,1102.00
2023-05-17T08:43:03.524Z,1167.00
2023-05-17T08:44:03.497Z,1292.00
2023-05-17T08:45:03.359Z,1184.00
2023-05-17T08:46:03.354Z,1283.00
2023-05-17T08:47:03.347Z,1457.00
2023-05-17T08:48:03.558Z,1426.00
2023-05-17T08:49:03.560Z,1423.00
2023-05-17T08:50:03.463Z,1423.00
2023-05-17T08:51:03.516Z,1443.00
2023-05-17T08:52:03.542Z,1568.00
2023-05-17T08:53:03.637Z,1554.00
2023-05-17T08:54:03.623Z,1551.00
2023-05-17T08:55:03.648Z,1568.00
2023-05-17T08:56:03.698Z,1612.00
2023-05-17T08:57:03.727Z,1620.00
2023-05-17T08:58:03.762Z,1695.00
2023-05-17T08:59:03.757Z,1691.00
2023-05-17T09:00:03.781Z,1758.00
2023-05-17T09:01:03.810Z,1776.00
2023-05-17T09:02:03.841Z,1790.00
2023-05-17T09:03:05.115Z,1852.00
2023-05-17T09:04:03.836Z,1871.00
2023-05-17T09:05:03.979Z,1890.00
2023-05-17T09:06:03.939Z,1892.00
2023-05-17T09:07:03.879Z,1960.00
2023-05-17T09:08:03.910Z,1960.00
2023-05-17T09:09:03.897Z,1967.00
2023-05-17T09:10:03.901Z,1987.00
2023-05-17T09:11:03.917Z,2000.00
2023-05-17T09:12:03.915Z,2025.00
2023-05-17T09:13:03.944Z,2063.00
2023-05-17T09:14:03.924Z,2116.00
2023-05-17T09:15:03.918Z,2139.00
2023-05-17T09:16:03.940Z,2156.00
2023-05-17T09:17:03.944Z,2170.00
2023-05-17T09:18:04.021Z,2179.00
2023-05-17T09:19:04.356Z,2212.00
2023-05-17T09:20:04.129Z,2250.00
2023-05-17T09:21:03.945Z,2238.00
2023-05-17T09:22:03.948Z,2248.00
2023-05-17T09:23:03.932Z,2260.00
2023-05-17T09:24:08.075Z,2311.00
2023-05-17T09:25:03.930Z,2321.00
2023-05-17T09:26:03.972Z,2331.00
2023-05-17T09:27:03.923Z,2345.00
2023-05-17T09:28:03.913Z,2188.00
2023-05-17T09:29:03.917Z,2210.00
2023-05-17T09:30:03.905Z,2328.00
2023-05-17T09:31:04.107Z,2343.00
2023-05-17T09:32:03.894Z,2402.00
2023-05-17T09:33:04.018Z,2398.00
2023-05-17T09:34:03.951Z,2417.00
2023-05-17T09:35:03.931Z,2475.00
2023-05-17T09:36:03.874Z,2453.00
2023-05-17T09:37:03.858Z,2360.00
2023-05-17T09:38:03.867Z,2340.00
2023-05-17T09:39:03.840Z,2330.00
2023-05-17T09:40:03.848Z,2326.00
2023-05-17T09:41:03.824Z,2311.00
2023-05-17T09:42:03.824Z,2285.00
2023-05-17T09:43:04.028Z,2270.00
2023-05-17T09:44:03.842Z,2204.00
2023-05-17T09:45:03.807Z,2188.00
2023-05-17T09:46:03.798Z,2192.00
2023-05-17T09:47:03.833Z,2196.00
2023-05-17T09:48:03.837Z,2181.00
2023-05-17T09:49:03.994Z,2143.00
2023-05-17T09:50:03.773Z,2130.00
2023-05-17T09:51:03.803Z,2121.00
2023-05-17T09:52:03.748Z,2116.00
2023-05-17T09:53:03.789Z,2119.00
2023-05-17T09:54:03.757Z,2112.00
2023-05-17T09:55:03.729Z,2101.00
2023-05-17T09:56:03.782Z,2090.00
2023-05-17T09:57:03.823Z,2065.00
2023-05-17T09:58:03.882Z,2054.00
2023-05-17T09:59:03.953Z,2038.00
2023-05-17T10:00:04.019Z,2031.00
2023-05-17T10:01:04.060Z,2035.00
2023-05-17T10:02:04.124Z,2024.00
2023-05-17T10:03:04.244Z,2017.00
2023-05-17T10:04:04.341Z,2004.00
2023-05-17T10:05:04.345Z,1998.00
2023-05-17T10:06:04.315Z,1989.00
2023-05-17T10:07:04.378Z,1975.00
2023-05-17T10:08:04.461Z,1971.00
2023-05-17T10:09:04.487Z,1956.00
2023-05-17T10:10:04.557Z,1943.00
2023-05-17T10:11:04.627Z,1931.00
2023-05-17T10:12:04.674Z,1920.00
2023-05-17T10:13:04.723Z,1915.00
2023-05-17T10:14:04.867Z,1909.00
2023-05-17T10:15:04.907Z,1904.00
2023-05-17T10:16:04.903Z,1893.00
2023-05-17T10:17:04.958Z,1882.00
2023-05-17T10:18:05.112Z,1882.00
2023-05-17T10:19:05.268Z,1874.00
2023-05-17T10:20:05.241Z,1859.00
2023-05-17T10:21:05.223Z,1811.00
2023-05-17T10:22:21.643Z,1806.00
2023-05-17T10:23:06.275Z,1797.00
2023-05-17T10:24:05.271Z,1789.00
2023-05-17T10:25:05.260Z,1787.00
2023-05-17T10:26:05.256Z,1783.00
2023-05-17T10:27:05.282Z,1783.00
2023-05-17T10:28:05.258Z,1785.00
2023-05-17T10:29:05.260Z,1788.00
2023-05-17T10:30:05.315Z,1786.00
2023-05-17T10:31:05.245Z,1775.00
2023-05-17T10:32:05.290Z,1762.00
2023-05-17T10:33:05.686Z,1740.00
2023-05-17T10:34:05.444Z,1726.00
2023-05-17T10:35:11.900Z,1728.00
2023-05-17T10:36:06.436Z,1727.00
2023-05-17T10:37:05.428Z,1721.00
2023-05-17T10:38:05.609Z,1714.00
2023-05-17T10:39:05.410Z,1707.00
2023-05-17T10:40:05.403Z,1699.00
2023-05-17T10:41:05.399Z,1695.00
2023-05-17T10:42:14.349Z,1679.00
2023-05-17T10:43:06.547Z,1670.00
2023-05-17T10:44:05.410Z,1668.00
2023-05-17T10:45:05.389Z,1660.00
2023-05-17T10:46:05.360Z,1652.00
2023-05-17T10:47:05.357Z,1645.00
2023-05-17T10:48:05.590Z,1639.00
2023-05-17T10:49:05.382Z,1632.00
2023-05-17T10:50:05.322Z,1627.00
2023-05-17T10:51:05.330Z,1626.00
2023-05-17T10:52:05.390Z,1617.00
2023-05-17T10:53:05.433Z,1611.00
2023-05-17T10:54:05.502Z,1603.00
2023-05-17T10:55:05.569Z,1586.00
2023-05-17T10:56:05.615Z,1567.00
2023-05-17T10:57:06.553Z,1554.00
2023-05-17T10:58:05.678Z,1547.00
2023-05-17T10:59:05.655Z,1544.00
2023-05-17T11:00:05.648Z,1541.00
2023-05-17T11:01:05.662Z,1539.00
2023-05-17T11:02:05.638Z,1533.00
2023-05-17T11:03:05.696Z,1531.00
2023-05-17T11:04:05.651Z,1520.00
2023-05-17T11:05:05.776Z,1512.00
2023-05-17T11:06:05.651Z,1506.00
2023-05-17T11:07:07.849Z,1494.00
2023-05-17T11:08:05.606Z,1483.00
2023-05-17T11:09:05.626Z,1484.00
2023-05-17T11:10:05.592Z,1484.00
2023-05-17T11:11:05.634Z,1479.00
2023-05-17T11:12:05.640Z,1478.00
2023-05-17T11:13:05.574Z,1467.00
2023-05-17T11:14:05.581Z,1457.00
2023-05-17T11:15:07.555Z,1454.00
2023-05-17T11:16:05.594Z,1448.00
2023-05-17T11:17:05.572Z,1441.00
2023-05-17T11:18:07.344Z,1430.00
2023-05-17T11:19:06.836Z,1419.00
2023-05-17T11:20:05.644Z,1440.00
2023-05-17T11:21:05.674Z,1448.00
2023-05-17T11:22:05.516Z,1451.00
2023-05-17T11:23:05.544Z,1455.00
2023-05-17T11:24:05.553Z,1460.00
2023-05-17T11:25:05.494Z,1465.00
2023-05-17T11:26:15.215Z,1469.00
2023-05-17T11:27:06.489Z,1468.00
2023-05-17T11:28:05.462Z,1462.00
2023-05-17T11:29:05.560Z,1458.00
2023-05-17T11:30:05.491Z,1451.00
2023-05-17T11:31:05.466Z,1445.00
2023-05-17T11:32:05.464Z,1442.00
2023-05-17T11:33:09.020Z,1445.00
2023-05-17T11:34:06.501Z,1445.00
2023-05-17T11:35:05.429Z,1441.00
2023-05-17T11:36:05.436Z,1439.00
2023-05-17T11:37:05.414Z,1434.00
2023-05-17T11:38:05.402Z,1433.00
2023-05-17T11:39:08.477Z,1429.00
2023-05-17T11:40:05.405Z,1428.00
2023-05-17T11:41:08.156Z,1427.00
2023-05-17T11:42:05.377Z,1424.00
2023-05-17T11:43:05.394Z,1424.00
2023-05-17T11:44:05.566Z,1420.00
2023-05-17T11:45:05.365Z,1410.00
2023-05-17T11:46:05.355Z,1409.00
2023-05-17T11:47:05.409Z,1405.00
2023-05-17T11:48:05.421Z,1400.00
2023-05-17T11:49:05.581Z,1396.00
2023-05-17T11:50:05.334Z,1392.00
2023-05-17T11:51:05.392Z,1393.00
2023-05-17T11:52:05.440Z,1395.00
2023-05-17T11:53:05.511Z,1393.00
2023-05-17T11:54:05.558Z,1393.00
2023-05-17T11:55:05.616Z,1393.00
2023-05-17T11:56:05.683Z,1391.00
2023-05-17T11:57:05.812Z,1384.00
2023-05-17T11:58:05.801Z,1382.00
2023-05-17T11:59:05.877Z,1376.00
2023-05-17T12:00:05.929Z,1375.00
2023-05-17T12:01:05.978Z,1379.00
2023-05-17T12:02:06.044Z,1380.00
2023-05-17T12:03:06.142Z,1378.00
2023-05-17T12:04:06.221Z,1372.00
2023-05-17T12:05:06.319Z,1364.00
2023-05-17T12:06:06.332Z,1357.00
2023-05-17T12:07:06.337Z,1350.00
2023-05-17T12:08:06.394Z,1350.00
2023-05-17T12:09:06.473Z,1350.00
2023-05-17T12:10:06.544Z,1345.00
2023-05-17T12:11:06.587Z,1346.00
2023-05-17T12:12:06.639Z,1344.00
2023-05-17T12:13:06.705Z,1340.00
2023-05-17T12:14:06.784Z,1339.00
2023-05-17T12:15:06.820Z,1339.00
2023-05-17T12:16:06.868Z,1337.00
2023-05-17T12:17:06.928Z,1332.00
2023-05-17T12:18:07.052Z,1329.00